Time;durP1;ratioP1;P1;durP2;ratioP2;P2;SDS_P1;SDS_P2;PMS_P1;PMS_P2;Temp;Humidity;BMP_temperature;BMP_pressure;BME280_temperature;BME280_humidity;BME280_pressure;Samples;Min_cycle;Max_cycle;Signal;HPM_P1;HPM_P2
2023/03/16 00:02:10;;;;;;;6.68;2.65;;;4.30;99.90;;;;;;5050984;28;20028;-67
2023/03/16 00:04:36;;;;;;;4.72;2.75;;;4.40;99.90;;;;;;5050300;28;20179;-67
2023/03/16 00:07:02;;;;;;;10.02;3.08;;;4.40;99.90;;;;;;5050950;28;20162;-67
2023/03/16 00:09:29;;;;;;;4.88;2.78;;;4.40;99.90;;;;;;5050455;28;20041;-67
2023/03/16 00:11:57;;;;;;;6.10;3.05;;;4.40;99.90;;;;;;5050603;28;20040;-67
2023/03/16 00:14:23;;;;;;;9.45;2.80;;;4.40;99.90;;;;;;5050529;28;20044;-67
2023/03/16 00:16:49;;;;;;;4.90;3.05;;;4.40;99.90;;;;;;5050902;28;20047;-67
2023/03/16 00:19:14;;;;;;;5.97;3.10;;;4.40;99.90;;;;;;5050811;28;20041;-67
2023/03/16 00:21:40;;;;;;;6.93;3.17;;;4.40;99.90;;;;;;5050563;28;20382;-67
2023/03/16 00:24:06;;;;;;;8.65;3.05;;;4.50;99.90;;;;;;5050184;28;20053;-67
2023/03/16 00:26:31;;;;;;;7.05;3.13;;;4.50;99.90;;;;;;5050755;28;20037;-67
2023/03/16 00:28:57;;;;;;;9.32;3.47;;;4.50;99.90;;;;;;5050633;28;20044;-67
2023/03/16 00:31:23;;;;;;;6.60;3.15;;;4.50;99.90;;;;;;5033437;28;20067;-67
2023/03/16 00:33:49;;;;;;;9.45;3.35;;;4.50;99.90;;;;;;5029942;28;20103;-67
2023/03/16 00:36:16;;;;;;;8.75;3.42;;;4.60;99.90;;;;;;5030768;28;20045;-66
2023/03/16 00:38:45;;;;;;;7.07;3.00;;;4.50;99.90;;;;;;5030721;28;20045;-67
2023/03/16 00:41:13;;;;;;;9.98;4.15;;;4.50;99.90;;;;;;5030727;28;20103;-67
2023/03/16 00:43:41;;;;;;;7.45;3.15;;;4.50;99.90;;;;;;5030317;28;20077;-66
2023/03/16 00:46:15;;;;;;;10.77;3.40;;;4.50;99.90;;;;;;5030063;28;20744;-67
2023/03/16 00:48:42;;;;;;;4.85;2.70;;;4.50;99.90;;;;;;5030052;28;20046;-67
2023/03/16 00:51:11;;;;;;;5.25;2.97;;;4.60;99.90;;;;;;5067764;28;20501;-67
2023/03/16 00:53:38;;;;;;;6.18;2.90;;;4.60;99.90;;;;;;5070002;28;20382;-66
2023/03/16 00:56:04;;;;;;;5.90;2.88;;;4.60;99.90;;;;;;5069986;28;20393;-67
2023/03/16 00:58:35;;;;;;;4.97;3.40;;;4.60;99.90;;;;;;5070070;28;20036;-66
2023/03/16 01:01:06;;;;;;;7.38;3.28;;;4.60;99.90;;;;;;5070190;28;20051;-67
2023/03/16 01:03:32;;;;;;;9.10;3.50;;;4.60;99.90;;;;;;5070015;28;20044;-67
2023/03/16 01:06:06;;;;;;;8.73;3.50;;;4.60;99.90;;;;;;5069632;28;20041;-67
2023/03/16 01:08:32;;;;;;;9.05;3.53;;;4.70;99.90;;;;;;5069881;28;20040;-67
2023/03/16 01:11:06;;;;;;;8.68;3.38;;;4.60;99.90;;;;;;5069774;28;20048;-67
2023/03/16 01:13:32;;;;;;;6.55;3.78;;;4.60;99.90;;;;;;5069730;28;20151;-67
2023/03/16 01:15:59;;;;;;;6.30;3.60;;;4.70;99.90;;;;;;5069713;28;20036;-66
2023/03/16 01:18:26;;;;;;;6.80;3.05;;;4.70;99.90;;;;;;5069526;28;20048;-66
2023/03/16 01:20:52;;;;;;;6.10;3.28;;;4.60;99.90;;;;;;5069393;28;20048;-67
2023/03/16 01:23:19;;;;;;;10.77;3.85;;;4.60;99.90;;;;;;5069463;28;20044;-66
2023/03/16 01:25:52;;;;;;;6.25;4.07;;;4.60;99.90;;;;;;5069147;28;20094;-67
2023/03/16 01:28:20;;;;;;;8.70;3.85;;;4.60;99.90;;;;;;5069264;28;20066;-67
2023/03/16 01:30:46;;;;;;;4.78;2.80;;;4.50;99.90;;;;;;5069017;28;20059;-67
2023/03/16 01:33:12;;;;;;;3.83;3.08;;;4.50;99.90;;;;;;5069315;28;20041;-66
2023/03/16 01:35:37;;;;;;;8.98;3.33;;;4.50;99.90;;;;;;5068764;28;20048;-66
2023/03/16 01:38:03;;;;;;;8.30;3.50;;;4.50;99.90;;;;;;5069157;28;20047;-67
2023/03/16 01:40:30;;;;;;;7.15;3.50;;;4.60;99.90;;;;;;5069129;28;20127;-67
2023/03/16 01:43:03;;;;;;;9.23;3.00;;;4.50;99.90;;;;;;5068606;28;20045;-66
2023/03/16 01:45:54;;;;;;;8.30;3.15;;;4.50;99.90;;;;;;5068842;28;20143;-66
2023/03/16 01:48:23;;;;;;;5.28;2.88;;;4.50;99.90;;;;;;5069104;28;20044;-66
2023/03/16 01:50:51;;;;;;;4.30;3.17;;;4.50;99.90;;;;;;5068766;28;20043;-67
2023/03/16 01:53:17;;;;;;;9.25;4.05;;;4.50;99.90;;;;;;5046018;28;20044;-66
2023/03/16 01:55:43;;;;;;;9.00;3.67;;;4.50;99.90;;;;;;5048189;28;20041;-66
2023/03/16 01:58:10;;;;;;;8.70;3.42;;;4.40;99.90;;;;;;5054216;28;20044;-66
2023/03/16 02:00:36;;;;;;;6.10;3.13;;;4.40;99.90;;;;;;5048458;28;20076;-67
2023/03/16 02:03:09;;;;;;;7.30;2.95;;;4.40;99.90;;;;;;5048111;28;20076;-67
2023/03/16 02:05:42;;;;;;;4.45;2.92;;;4.40;99.90;;;;;;5048626;28;20405;-67
2023/03/16 02:08:09;;;;;;;10.23;2.92;;;4.40;99.90;;;;;;5043158;28;20040;-67
2023/03/16 02:10:35;;;;;;;6.35;3.45;;;4.40;99.90;;;;;;5048425;28;20119;-67
2023/03/16 02:13:02;;;;;;;5.22;3.15;;;4.40;99.90;;;;;;5048557;28;20081;-67
2023/03/16 02:15:28;;;;;;;5.75;3.10;;;4.40;99.90;;;;;;5048361;28;20632;-66
2023/03/16 02:17:56;;;;;;;5.60;2.92;;;4.40;99.90;;;;;;5048475;28;20137;-67
2023/03/16 02:20:57;;;;;;;7.63;2.80;;;4.40;99.90;;;;;;5048447;28;20040;-66
2023/03/16 02:23:24;;;;;;;4.00;2.65;;;4.40;99.90;;;;;;5029193;28;20091;-66
2023/03/16 02:26:02;;;;;;;5.97;3.00;;;4.40;99.90;;;;;;5048351;28;20052;-66
2023/03/16 02:28:38;;;;;;;10.20;3.40;;;4.40;99.90;;;;;;5048249;28;20379;-66
2023/03/16 02:31:05;;;;;;;5.25;3.15;;;4.40;99.90;;;;;;5047038;28;20128;-67
2023/03/16 02:33:32;;;;;;;6.75;3.40;;;4.40;99.90;;;;;;5048035;28;20563;-66
2023/03/16 02:35:58;;;;;;;5.38;2.70;;;4.40;99.90;;;;;;5048080;28;20041;-66
2023/03/16 02:38:23;;;;;;;17.95;5.10;;;4.40;99.90;;;;;;5048303;28;20482;-66
2023/03/16 02:40:59;;;;;;;7.30;3.28;;;4.40;99.90;;;;;;5048067;28;20055;-66
2023/03/16 02:43:31;;;;;;;6.43;3.15;;;4.40;99.90;;;;;;5047597;28;20870;-66
2023/03/16 02:45:59;;;;;;;6.95;3.10;;;4.40;99.90;;;;;;5047791;28;20037;-66
2023/03/16 02:48:36;;;;;;;4.90;3.38;;;4.50;99.90;;;;;;5048140;28;20068;-66
2023/03/16 02:51:01;;;;;;;4.90;3.05;;;4.40;99.90;;;;;;5048229;28;20044;-66
2023/03/16 02:53:27;;;;;;;9.52;3.60;;;4.40;99.90;;;;;;5047832;28;20048;-66
2023/03/16 02:55:52;;;;;;;3.22;2.92;;;4.40;99.90;;;;;;5047727;28;20115;-66
2023/03/16 02:58:18;;;;;;;8.85;3.28;;;4.40;99.90;;;;;;5047974;28;20033;-66
2023/03/16 03:00:44;;;;;;;4.97;3.28;;;4.40;99.90;;;;;;5047980;28;20032;-66
2023/03/16 03:03:10;;;;;;;7.93;3.40;;;4.50;99.90;;;;;;5047829;28;20053;-66
2023/03/16 03:05:36;;;;;;;6.07;3.25;;;4.50;99.90;;;;;;5047528;28;20175;-66
2023/03/16 03:08:03;;;;;;;4.88;3.08;;;4.50;99.90;;;;;;5047885;28;20722;-66
2023/03/16 03:10:29;;;;;;;4.57;2.88;;;4.50;99.90;;;;;;5048076;28;20528;-67
2023/03/16 03:12:56;;;;;;;5.28;3.13;;;4.50;99.90;;;;;;5047451;28;20068;-66
2023/03/16 03:15:22;;;;;;;8.88;3.83;;;4.50;99.90;;;;;;5047371;28;20508;-66
2023/03/16 03:17:48;;;;;;;12.48;3.67;;;4.50;99.90;;;;;;5047483;28;20041;-66
2023/03/16 03:20:17;;;;;;;3.88;2.78;;;4.50;99.90;;;;;;5047699;28;20041;-66
2023/03/16 03:22:45;;;;;;;6.97;3.28;;;4.50;99.90;;;;;;5047294;28;20040;-66
2023/03/16 03:25:13;;;;;;;3.97;3.00;;;4.60;99.90;;;;;;5047401;28;20450;-66
2023/03/16 03:27:40;;;;;;;9.90;3.40;;;4.50;99.90;;;;;;5047422;28;20033;-67
2023/03/16 03:30:06;;;;;;;4.97;3.25;;;4.50;99.90;;;;;;5047443;28;20049;-67
2023/03/16 03:32:31;;;;;;;5.32;3.70;;;4.50;99.90;;;;;;5047198;28;20533;-67
2023/03/16 03:34:57;;;;;;;6.63;3.42;;;4.60;99.90;;;;;;5047159;28;20041;-67
2023/03/16 03:37:23;;;;;;;7.68;3.80;;;4.60;99.90;;;;;;5047528;28;20110;-67
2023/03/16 03:39:49;;;;;;;6.78;2.92;;;4.60;99.90;;;;;;5047511;28;20045;-67
2023/03/16 03:42:15;;;;;;;8.30;3.88;;;4.60;99.90;;;;;;5047447;28;20701;-67
2023/03/16 03:44:40;;;;;;;6.38;3.55;;;4.60;99.90;;;;;;5047042;28;20052;-67
2023/03/16 03:47:06;;;;;;;8.18;3.42;;;4.60;99.90;;;;;;5047476;28;20067;-67
2023/03/16 03:49:32;;;;;;;4.80;3.10;;;4.60;99.90;;;;;;5047367;28;20045;-67
2023/03/16 03:51:58;;;;;;;5.70;3.25;;;4.50;99.90;;;;;;5047473;28;20047;-67
2023/03/16 03:54:24;;;;;;;7.40;3.30;;;4.60;99.90;;;;;;5047058;28;20100;-66
2023/03/16 03:56:51;;;;;;;11.50;3.45;;;4.60;99.90;;;;;;5047341;28;20573;-67
2023/03/16 03:59:17;;;;;;;5.57;3.13;;;4.60;99.90;;;;;;5047486;28;20041;-66
2023/03/16 04:01:42;;;;;;;6.32;3.80;;;4.60;99.90;;;;;;5047148;28;20079;-67
2023/03/16 04:04:08;;;;;;;7.38;3.35;;;4.60;99.90;;;;;;5047068;28;20041;-67
2023/03/16 04:06:34;;;;;;;9.68;4.18;;;4.60;99.90;;;;;;5047410;28;20077;-66
2023/03/16 04:08:59;;;;;;;9.63;3.83;;;4.60;99.90;;;;;;5047461;28;20053;-66
2023/03/16 04:11:25;;;;;;;10.05;3.72;;;4.60;99.90;;;;;;5047332;28;20591;-66
2023/03/16 04:13:52;;;;;;;5.60;3.10;;;4.70;99.90;;;;;;5046921;28;20516;-66
2023/03/16 04:16:18;;;;;;;6.22;3.60;;;4.60;99.90;;;;;;5047280;28;20041;-66
2023/03/16 04:18:45;;;;;;;5.88;3.33;;;4.60;99.90;;;;;;5047135;28;20045;-67
2023/03/16 04:21:16;;;;;;;6.78;3.53;;;4.60;99.90;;;;;;5047445;28;20041;-67
2023/03/16 04:23:42;;;;;;;9.38;3.33;;;4.70;99.90;;;;;;5047242;28;20460;-66
2023/03/16 04:26:08;;;;;;;7.53;3.55;;;4.60;99.90;;;;;;5049884;28;20437;-66
2023/03/16 04:28:34;;;;;;;10.07;3.58;;;4.60;99.90;;;;;;5050748;28;20037;-67
2023/03/16 04:31:07;;;;;;;4.25;3.00;;;4.70;99.90;;;;;;5050713;28;20053;-66
2023/03/16 04:33:34;;;;;;;6.93;3.95;;;4.60;99.90;;;;;;5050639;28;20489;-66
2023/03/16 04:36:01;;;;;;;10.38;3.55;;;4.60;99.90;;;;;;5050370;28;20664;-66
2023/03/16 04:38:28;;;;;;;5.68;3.58;;;4.60;99.90;;;;;;5050706;28;20482;-67
2023/03/16 04:40:54;;;;;;;5.10;3.40;;;4.70;99.90;;;;;;5050442;28;20037;-67
2023/03/16 04:43:20;;;;;;;6.60;3.53;;;4.60;99.90;;;;;;5049996;28;20056;-67
2023/03/16 04:45:46;;;;;;;5.57;3.55;;;4.70;99.90;;;;;;5050061;28;20045;-67
2023/03/16 04:48:11;;;;;;;8.63;3.88;;;4.60;99.90;;;;;;5050124;28;20115;-67
2023/03/16 04:50:37;;;;;;;5.90;3.22;;;4.60;99.90;;;;;;5049988;28;20056;-67
2023/03/16 04:53:03;;;;;;;7.07;3.45;;;4.70;99.90;;;;;;5048549;28;20136;-67
2023/03/16 04:55:30;;;;;;;5.97;3.85;;;4.60;99.90;;;;;;5049877;28;20059;-67
2023/03/16 04:57:55;;;;;;;6.28;3.28;;;4.70;99.90;;;;;;5050174;28;20040;-67
2023/03/16 05:00:22;;;;;;;7.35;3.70;;;4.70;99.90;;;;;;5050109;28;20607;-67
2023/03/16 05:02:49;;;;;;;4.32;3.05;;;4.70;99.90;;;;;;5049825;28;20047;-67
2023/03/16 05:05:15;;;;;;;8.23;4.13;;;4.70;99.90;;;;;;5048169;28;20087;-67
2023/03/16 05:07:42;;;;;;;6.97;3.25;;;4.70;99.90;;;;;;5049620;28;20072;-67
2023/03/16 05:10:09;;;;;;;7.35;3.63;;;4.70;99.90;;;;;;5049815;28;20032;-67
2023/03/16 05:12:35;;;;;;;7.38;4.32;;;4.70;99.90;;;;;;5049436;28;20044;-67
2023/03/16 05:15:01;;;;;;;7.90;4.50;;;4.70;99.90;;;;;;5049428;28;20592;-66
2023/03/16 05:17:27;;;;;;;4.55;3.15;;;4.70;99.90;;;;;;5049811;28;20568;-67
2023/03/16 05:19:52;;;;;;;5.88;3.50;;;4.70;99.90;;;;;;5049459;28;20067;-67
2023/03/16 05:22:18;;;;;;;5.38;3.63;;;4.70;99.90;;;;;;5049437;28;20040;-66
2023/03/16 05:24:44;;;;;;;11.43;4.10;;;4.70;99.90;;;;;;5049089;28;20057;-67
2023/03/16 05:27:09;;;;;;;5.47;3.50;;;4.70;99.90;;;;;;5049715;28;20045;-67
2023/03/16 05:29:35;;;;;;;6.55;3.75;;;4.70;99.90;;;;;;5049311;28;20045;-67
2023/03/16 05:32:00;;;;;;;7.60;3.33;;;4.70;99.90;;;;;;5049333;28;20078;-66
2023/03/16 05:34:26;;;;;;;9.15;3.45;;;4.70;99.90;;;;;;5049005;28;20044;-66
2023/03/16 05:36:52;;;;;;;5.88;3.58;;;4.60;99.90;;;;;;5049103;28;20957;-66
2023/03/16 05:39:17;;;;;;;8.60;3.72;;;4.70;99.90;;;;;;5049190;28;20036;-66
2023/03/16 05:41:43;;;;;;;4.85;3.60;;;4.70;99.90;;;;;;5048735;28;20062;-66
2023/03/16 05:44:09;;;;;;;6.80;3.58;;;4.70;99.90;;;;;;5046125;28;20045;-66
2023/03/16 05:46:35;;;;;;;4.43;3.42;;;4.60;99.90;;;;;;5046246;28;20047;-66
2023/03/16 05:49:02;;;;;;;5.50;3.28;;;4.70;99.90;;;;;;5047798;28;20401;-66
2023/03/16 05:51:27;;;;;;;4.45;3.17;;;4.60;99.90;;;;;;5045693;28;20401;-67
2023/03/16 05:53:55;;;;;;;5.43;3.30;;;4.60;99.90;;;;;;5046331;28;20051;-67
2023/03/16 05:56:26;;;;;;;6.45;3.30;;;4.70;99.90;;;;;;5048968;28;20121;-67
2023/03/16 05:58:53;;;;;;;5.50;3.78;;;4.70;99.90;;;;;;5047690;28;20114;-66
2023/03/16 06:01:19;;;;;;;7.45;3.15;;;4.70;99.90;;;;;;5048369;28;20036;-66
2023/03/16 06:03:46;;;;;;;7.53;3.90;;;4.70;99.90;;;;;;5048789;28;20045;-67
2023/03/16 06:06:12;;;;;;;4.38;3.13;;;4.70;99.90;;;;;;5048619;28;20041;-66
2023/03/16 06:08:37;;;;;;;6.53;3.80;;;4.70;99.90;;;;;;5048639;28;20041;-66
2023/03/16 06:11:03;;;;;;;6.13;3.22;;;4.70;99.90;;;;;;5048620;28;20044;-66
2023/03/16 06:13:29;;;;;;;4.80;3.17;;;4.70;99.90;;;;;;5048430;28;20140;-66
2023/03/16 06:15:54;;;;;;;5.93;4.55;;;4.70;99.90;;;;;;5048176;28;20032;-67
2023/03/16 06:18:20;;;;;;;4.60;3.15;;;4.70;99.90;;;;;;5048652;28;20059;-67
2023/03/16 06:20:46;;;;;;;8.48;3.85;;;4.70;99.90;;;;;;5048540;28;20045;-67
2023/03/16 06:23:12;;;;;;;4.22;3.25;;;4.70;99.90;;;;;;5048636;28;20045;-67
2023/03/16 06:25:38;;;;;;;6.18;3.63;;;4.70;99.90;;;;;;5048124;28;20055;-67
2023/03/16 06:28:04;;;;;;;4.32;3.05;;;4.70;99.90;;;;;;5048582;28;20086;-66
2023/03/16 06:30:30;;;;;;;6.50;3.75;;;4.70;99.90;;;;;;5048070;28;20044;-67
2023/03/16 06:32:56;;;;;;;6.07;3.50;;;4.70;99.90;;;;;;5048003;28;20055;-67
2023/03/16 06:35:22;;;;;;;5.45;3.47;;;4.70;99.90;;;;;;5048039;28;20076;-67
2023/03/16 06:37:47;;;;;;;5.03;3.38;;;4.80;99.90;;;;;;5048592;28;20040;-67
2023/03/16 06:40:13;;;;;;;10.27;4.03;;;4.80;99.90;;;;;;5048500;28;20036;-67
2023/03/16 06:42:39;;;;;;;6.32;3.92;;;4.80;99.90;;;;;;5048209;28;20183;-67
2023/03/16 06:45:05;;;;;;;6.10;3.80;;;4.80;99.90;;;;;;5047739;28;20072;-67
2023/03/16 06:47:31;;;;;;;5.63;3.47;;;4.80;99.90;;;;;;5047682;28;20063;-67
2023/03/16 06:49:56;;;;;;;7.13;3.10;;;4.80;99.90;;;;;;5047851;28;20537;-68
2023/03/16 06:52:22;;;;;;;5.45;3.38;;;4.80;99.90;;;;;;5048112;28;20072;-67
2023/03/16 06:54:48;;;;;;;5.07;3.38;;;4.90;99.90;;;;;;5047405;28;20041;-67
2023/03/16 06:57:13;;;;;;;4.25;3.30;;;4.90;99.90;;;;;;5047864;28;20190;-67
2023/03/16 06:59:39;;;;;;;12.60;6.07;;;4.90;99.90;;;;;;5047636;28;20045;-67
2023/03/16 07:02:05;;;;;;;6.05;3.78;;;4.90;99.90;;;;;;5046259;28;20045;-67
2023/03/16 07:04:31;;;;;;;6.00;3.80;;;4.90;99.90;;;;;;5047694;28;20052;-67
2023/03/16 07:06:57;;;;;;;9.18;3.75;;;5.00;99.90;;;;;;5048015;28;20516;-67
2023/03/16 07:09:22;;;;;;;5.25;3.45;;;5.00;99.90;;;;;;5047740;28;20103;-67
2023/03/16 07:11:48;;;;;;;4.97;3.30;;;5.00;99.90;;;;;;5047758;28;20045;-67
2023/03/16 07:14:14;;;;;;;4.38;3.50;;;5.00;99.90;;;;;;5047655;28;20049;-67
2023/03/16 07:16:39;;;;;;;10.00;3.40;;;5.00;99.90;;;;;;5048222;28;20037;-67
2023/03/16 07:19:05;;;;;;;4.43;3.40;;;5.10;99.90;;;;;;5047830;28;20048;-67
2023/03/16 07:21:37;;;;;;;5.90;3.83;;;5.00;99.90;;;;;;5047867;28;20036;-67
2023/03/16 07:24:04;;;;;;;7.13;3.78;;;5.10;99.90;;;;;;5047510;28;20041;-67
2023/03/16 07:26:31;;;;;;;6.72;3.17;;;5.10;99.90;;;;;;5047742;28;20048;-68
2023/03/16 07:28:57;;;;;;;6.05;3.20;;;5.10;99.90;;;;;;5047385;28;20496;-67
2023/03/16 07:31:23;;;;;;;6.32;3.42;;;5.10;99.90;;;;;;5047618;28;20068;-68
2023/03/16 07:33:49;;;;;;;4.05;3.45;;;5.10;99.90;;;;;;5047283;28;20179;-67
2023/03/16 07:36:15;;;;;;;5.72;2.92;;;5.10;99.90;;;;;;5047633;28;20048;-67
2023/03/16 07:38:41;;;;;;;7.65;3.70;;;5.20;99.90;;;;;;5047583;28;20072;-68
2023/03/16 07:41:07;;;;;;;4.75;3.28;;;5.20;99.90;;;;;;5047483;28;20044;-67
2023/03/16 07:43:33;;;;;;;4.78;3.75;;;5.20;99.90;;;;;;5047445;28;20120;-68
2023/03/16 07:46:00;;;;;;;5.47;3.53;;;5.30;99.90;;;;;;5046890;28;20115;-67
2023/03/16 07:48:26;;;;;;;5.28;3.63;;;5.30;99.90;;;;;;5047191;28;20391;-67
2023/03/16 07:50:53;;;;;;;5.18;3.45;;;5.30;99.90;;;;;;5047514;28;20041;-67
2023/03/16 07:53:19;;;;;;;4.97;3.40;;;5.30;99.90;;;;;;5047329;28;20094;-67
2023/03/16 07:55:45;;;;;;;5.35;3.03;;;5.30;99.90;;;;;;5047404;28;20073;-67
2023/03/16 07:58:11;;;;;;;6.00;3.35;;;5.30;99.90;;;;;;5047134;28;20144;-67
2023/03/16 08:00:38;;;;;;;5.03;3.65;;;5.40;99.90;;;;;;5049485;28;20044;-67
2023/03/16 08:03:03;;;;;;;4.30;3.35;;;5.40;99.90;;;;;;5051252;28;20124;-67
2023/03/16 08:05:31;;;;;;;7.38;3.40;;;5.40;99.90;;;;;;5050701;28;20120;-67
2023/03/16 08:07:57;;;;;;;7.65;3.90;;;5.40;99.90;;;;;;5049351;28;20116;-67
2023/03/16 08:10:23;;;;;;;11.48;3.40;;;5.50;99.90;;;;;;5046071;28;20124;-67
2023/03/16 08:12:48;;;;;;;14.57;4.30;;;5.50;99.90;;;;;;5046748;28;20037;-67
2023/03/16 08:15:14;;;;;;;6.35;3.60;;;5.50;99.90;;;;;;5049880;28;20515;-67
2023/03/16 08:17:43;;;;;;;5.18;3.63;;;5.50;99.90;;;;;;5048768;28;20040;-67
2023/03/16 08:20:11;;;;;;;5.53;3.63;;;5.40;99.90;;;;;;5043053;28;20032;-67
2023/03/16 08:22:37;;;;;;;6.75;3.40;;;5.40;99.90;;;;;;5048209;28;20041;-67
2023/03/16 08:25:04;;;;;;;8.88;3.67;;;5.50;99.90;;;;;;5049983;28;20055;-67
2023/03/16 08:27:30;;;;;;;6.28;3.78;;;5.50;99.90;;;;;;5050517;28;20457;-67
2023/03/16 08:29:56;;;;;;;6.55;4.03;;;5.50;99.90;;;;;;5050255;28;20049;-68
2023/03/16 08:32:22;;;;;;;8.75;4.32;;;5.50;99.90;;;;;;5048975;28;20040;-67
2023/03/16 08:34:48;;;;;;;8.35;4.22;;;5.50;99.90;;;;;;5050308;28;20049;-67
2023/03/16 08:37:15;;;;;;;5.53;3.92;;;5.50;99.90;;;;;;5050411;28;20040;-69
2023/03/16 08:39:42;;;;;;;7.72;3.70;;;5.50;99.90;;;;;;5049327;28;20037;-67
2023/03/16 08:42:09;;;;;;;7.10;4.28;;;5.50;99.90;;;;;;5048051;28;20033;-66
2023/03/16 08:44:35;;;;;;;9.68;4.20;;;5.50;99.90;;;;;;5044545;28;20044;-67
2023/03/16 08:47:01;;;;;;;5.20;3.80;;;5.50;99.90;;;;;;5050392;28;20102;-67
2023/03/16 08:49:28;;;;;;;6.72;4.10;;;5.50;99.90;;;;;;5050300;28;20044;-67
2023/03/16 08:51:54;;;;;;;9.23;4.78;;;5.50;99.90;;;;;;5050184;28;20036;-67
2023/03/16 08:54:19;;;;;;;6.95;3.42;;;5.50;99.90;;;;;;5049894;28;20037;-67
2023/03/16 08:56:45;;;;;;;8.68;4.50;;;5.40;99.90;;;;;;5049904;28;20037;-67
2023/03/16 08:59:10;;;;;;;8.27;4.53;;;5.40;99.90;;;;;;5050305;28;20123;-67
2023/03/16 09:01:36;;;;;;;6.63;4.68;;;5.40;99.90;;;;;;5050107;28;20040;-67
2023/03/16 09:04:02;;;;;;;7.22;4.47;;;5.40;99.90;;;;;;5049585;28;20564;-67
2023/03/16 09:06:28;;;;;;;7.15;4.47;;;5.40;99.90;;;;;;5049872;28;20032;-67
2023/03/16 09:08:54;;;;;;;6.65;4.53;;;5.40;99.90;;;;;;5049844;28;20103;-67
2023/03/16 09:11:21;;;;;;;7.32;4.00;;;5.40;99.90;;;;;;5049240;28;20045;-67
2023/03/16 09:13:47;;;;;;;10.95;4.40;;;5.50;99.90;;;;;;5047929;28;20045;-67
2023/03/16 09:16:14;;;;;;;7.18;4.32;;;5.50;99.90;;;;;;5050099;28;20045;-67
2023/03/16 09:18:41;;;;;;;6.10;4.50;;;5.50;99.90;;;;;;5049600;28;20044;-67
2023/03/16 09:21:09;;;;;;;8.45;4.40;;;5.50;99.90;;;;;;5049810;28;20049;-67
2023/03/16 09:23:38;;;;;;;8.48;4.47;;;5.60;99.90;;;;;;5049776;28;20379;-67
2023/03/16 09:26:06;;;;;;;8.05;4.28;;;5.60;99.90;;;;;;5049515;28;20087;-67
2023/03/16 09:28:33;;;;;;;6.03;4.00;;;5.60;99.90;;;;;;5049830;28;20052;-67
2023/03/16 09:31:00;;;;;;;8.25;4.25;;;5.70;99.90;;;;;;5049789;28;20434;-67
2023/03/16 09:33:30;;;;;;;9.35;4.50;;;5.70;99.90;;;;;;5049592;28;20045;-67
2023/03/16 09:35:57;;;;;;;8.73;4.35;;;5.70;99.90;;;;;;5049154;28;20119;-67
2023/03/16 09:38:26;;;;;;;6.88;4.85;;;5.70;99.90;;;;;;5049324;28;20068;-67
2023/03/16 09:41:05;;;;;;;8.25;4.95;;;5.70;99.90;;;;;;5049392;28;20075;-67
2023/03/16 09:44:01;;;;;;;6.55;4.40;;;5.80;99.90;;;;;;5049427;28;20138;-67
2023/03/16 09:46:41;;;;;;;9.57;4.68;;;5.80;99.90;;;;;;5046644;28;20060;-67
2023/03/16 09:49:09;;;;;;;9.05;4.80;;;5.80;99.90;;;;;;5048990;28;20049;-67
2023/03/16 09:51:51;;;;;;;13.60;4.72;;;5.90;99.90;;;;;;5049318;28;20126;-67
2023/03/16 09:54:28;;;;;;;7.55;4.75;;;5.90;99.90;;;;;;5048638;28;20045;-67
2023/03/16 09:56:55;;;;;;;12.30;4.95;;;5.90;99.90;;;;;;5055746;28;20637;-67
2023/03/16 09:59:22;;;;;;;7.47;4.63;;;5.90;99.90;;;;;;5068873;28;20040;-67
2023/03/16 10:02:09;;;;;;;7.50;5.13;;;5.90;99.90;;;;;;5068640;28;20047;-67
2023/03/16 10:05:01;;;;;;;9.73;5.03;;;5.90;99.90;;;;;;5068973;28;20067;-67
2023/03/16 10:07:47;;;;;;;11.10;5.00;;;6.00;99.90;;;;;;5069107;28;20064;-67
2023/03/16 10:10:13;;;;;;;7.85;4.85;;;6.00;99.90;;;;;;5068592;28;20051;-67
2023/03/16 10:12:43;;;;;;;8.57;4.88;;;6.00;99.90;;;;;;5068739;28;20181;-67
2023/03/16 10:15:13;;;;;;;10.82;5.15;;;6.00;99.90;;;;;;5068826;28;20047;-67
2023/03/16 10:18:13;;;;;;;10.60;4.78;;;6.00;99.90;;;;;;5069032;28;20041;-67
2023/03/16 10:20:40;;;;;;;8.77;4.30;;;6.00;99.90;;;;;;5063952;28;20053;-67
2023/03/16 10:23:24;;;;;;;7.35;4.90;;;6.00;99.90;;;;;;5067955;28;20048;-67
2023/03/16 10:25:52;;;;;;;8.32;4.78;;;6.00;99.90;;;;;;5068580;28;20128;-67
2023/03/16 10:28:31;;;;;;;9.40;5.72;;;6.00;99.90;;;;;;5068769;28;20055;-67
2023/03/16 10:30:59;;;;;;;13.30;5.25;;;6.10;99.90;;;;;;5068053;28;20467;-67
2023/03/16 10:33:33;;;;;;;6.88;4.53;;;6.10;99.90;;;;;;5068145;28;20517;-67
2023/03/16 10:36:28;;;;;;;7.80;4.53;;;6.20;99.90;;;;;;5068067;28;20095;-67
2023/03/16 10:38:58;;;;;;;9.32;5.45;;;6.20;99.90;;;;;;5068191;28;20048;-67
2023/03/16 10:41:30;;;;;;;8.35;4.30;;;6.20;99.90;;;;;;5068405;28;20397;-67
2023/03/16 10:44:07;;;;;;;8.07;4.38;;;6.30;99.90;;;;;;5068037;28;20045;-67
2023/03/16 10:47:06;;;;;;;7.68;4.18;;;6.30;99.90;;;;;;5068388;28;20055;-67
2023/03/16 10:49:47;;;;;;;11.60;4.72;;;6.70;99.90;;;;;;5042452;28;20433;-68
2023/03/16 10:52:19;;;;;;;7.78;4.60;;;7.00;99.90;;;;;;5047864;28;20055;-69
2023/03/16 10:54:55;;;;;;;7.50;4.32;;;6.80;99.90;;;;;;5044405;28;20037;-69
2023/03/16 10:57:30;;;;;;;9.30;4.70;;;6.80;99.90;;;;;;5047747;28;20051;-69
2023/03/16 11:00:19;;;;;;;10.32;4.45;;;6.70;99.90;;;;;;5043145;28;20070;-69
2023/03/16 11:02:48;;;;;;;7.07;4.57;;;6.70;99.90;;;;;;5051496;28;20033;-69
2023/03/16 11:05:16;;;;;;;7.40;4.38;;;6.70;99.90;;;;;;5047699;28;20036;-67
2023/03/16 11:07:52;;;;;;;7.00;4.10;;;6.70;99.90;;;;;;5048030;28;20041;-67
2023/03/16 11:10:32;;;;;;;8.32;4.03;;;6.70;99.90;;;;;;5047745;28;20041;-68
2023/03/16 11:13:13;;;;;;;6.25;3.83;;;6.70;99.90;;;;;;5047943;28;20060;-67
2023/03/16 11:15:42;;;;;;;9.18;4.50;;;6.70;99.90;;;;;;5047842;28;20400;-67
2023/03/16 11:18:21;;;;;;;5.85;4.25;;;6.70;99.90;;;;;;5047667;28;20043;-68
2023/03/16 11:20:47;;;;;;;7.00;3.90;;;6.70;99.90;;;;;;5047914;28;20460;-67
2023/03/16 11:23:17;;;;;;;9.02;4.72;;;6.70;99.90;;;;;;5047962;28;20095;-67
2023/03/16 11:25:47;;;;;;;8.55;3.55;;;6.80;99.90;;;;;;5046896;28;20485;-67
2023/03/16 11:28:23;;;;;;;6.05;3.33;;;6.80;99.90;;;;;;5047846;28;20083;-67
2023/03/16 11:31:19;;;;;;;11.60;4.05;;;6.90;99.90;;;;;;5039564;28;20071;-68
2023/03/16 11:33:47;;;;;;;4.53;3.50;;;6.90;99.90;;;;;;5048141;28;20043;-68
2023/03/16 11:36:26;;;;;;;8.25;3.90;;;7.00;99.90;;;;;;5051964;28;20108;-67
2023/03/16 11:39:11;;;;;;;12.95;3.80;;;7.00;99.90;;;;;;5043696;28;20584;-67
2023/03/16 11:41:45;;;;;;;5.80;3.78;;;7.00;99.90;;;;;;5051578;28;20041;-67
2023/03/16 11:44:21;;;;;;;9.40;3.70;;;7.10;99.90;;;;;;5050229;28;20448;-67
2023/03/16 11:47:08;;;;;;;7.60;3.78;;;7.10;99.90;;;;;;5052024;28;20049;-67
2023/03/16 11:49:49;;;;;;;4.70;3.45;;;7.20;99.90;;;;;;5043148;28;20036;-67
2023/03/16 11:52:42;;;;;;;9.52;3.90;;;7.20;99.90;;;;;;5041900;28;20045;-67
2023/03/16 11:55:33;;;;;;;8.15;3.28;;;7.30;99.90;;;;;;5044587;28;20379;-67
2023/03/16 11:58:32;;;;;;;5.18;3.28;;;7.30;99.90;;;;;;5039220;28;20675;-67
2023/03/16 12:01:07;;;;;;;5.57;3.75;;;7.30;99.90;;;;;;5051002;28;20124;-67
2023/03/16 12:04:00;;;;;;;6.10;3.70;;;7.40;99.90;;;;;;5051853;28;20084;-68
2023/03/16 12:06:37;;;;;;;;;;;7.40;99.90;;;;;;5051962;28;20055;-68
2023/03/16 12:09:39;;;;;;;9.25;4.13;;;7.50;99.90;;;;;;5051394;28;19920;-67
2023/03/16 12:12:28;;;;;;;5.70;3.42;;;7.60;99.90;;;;;;5051212;28;20045;-67
2023/03/16 12:15:13;;;;;;;5.90;3.78;;;7.70;99.90;;;;;;5050410;28;20041;-65
2023/03/16 12:17:41;;;;;;;5.45;4.10;;;8.10;99.90;;;;;;5049722;28;20106;-67
2023/03/16 12:20:12;;;;;;;10.07;3.85;;;7.90;99.90;;;;;;5050845;28;20045;-68
2023/03/16 12:23:15;;;;;;;5.47;3.55;;;8.00;99.90;;;;;;5051391;28;20120;-68
2023/03/16 12:25:46;;;;;;;5.13;3.28;;;8.10;99.90;;;;;;5063474;28;20059;-68
2023/03/16 12:28:23;;;;;;;6.90;3.42;;;8.20;99.90;;;;;;5055256;28;20091;-69
2023/03/16 12:30:59;;;;;;;6.20;3.67;;;8.20;99.90;;;;;;5041066;28;20048;-68
2023/03/16 12:33:55;;;;;;;5.65;3.20;;;8.20;99.90;;;;;;5045843;28;20037;-68
2023/03/16 12:36:32;;;;;;;8.00;3.83;;;8.20;99.90;;;;;;5070449;28;20576;-68
2023/03/16 12:39:29;;;;;;;6.93;4.25;;;8.30;99.90;;;;;;5070940;28;20432;-68
2023/03/16 12:42:43;;;;;;;5.97;3.38;;;8.30;99.90;;;;;;5071228;28;20083;-68
2023/03/16 12:45:28;;;;;;;;;;;8.30;99.90;;;;;;5070504;28;20036;-66
2023/03/16 12:48:06;;;;;;;5.63;3.50;;;8.30;99.90;;;;;;5070479;28;19916;-67
2023/03/16 12:50:31;;;;;;;7.25;3.72;;;8.40;99.90;;;;;;5070441;28;20040;-67
2023/03/16 12:52:57;;;;;;;5.38;3.33;;;8.40;99.90;;;;;;5070082;28;20036;-67
2023/03/16 12:55:43;;;;;;;4.53;2.95;;;8.40;99.90;;;;;;5070486;28;20043;-67
2023/03/16 12:58:10;;;;;;;5.65;3.70;;;8.40;99.90;;;;;;5070641;28;20040;-67
2023/03/16 13:00:39;;;;;;;8.50;4.57;;;8.40;99.90;;;;;;5070487;28;20044;-67
2023/03/16 13:03:13;;;;;;;5.40;3.88;;;8.40;99.90;;;;;;5070435;28;20043;-69
2023/03/16 13:05:50;;;;;;;8.07;3.70;;;8.40;99.90;;;;;;5070187;28;20129;-70
2023/03/16 13:08:18;;;;;;;9.00;3.63;;;8.50;99.90;;;;;;5070291;28;20040;-67
2023/03/16 13:11:08;;;;;;;6.13;3.42;;;8.40;99.90;;;;;;5070311;28;20048;-68
2023/03/16 13:13:34;;;;;;;4.28;3.13;;;8.60;99.90;;;;;;5069799;28;20045;-67